Time;durP1;ratioP1;P1;durP2;ratioP2;P2;SDS_P1;SDS_P2;PMS_P1;PMS_P2;Temp;Humidity;BMP_temperature;BMP_pressure;BME280_temperature;BME280_humidity;BME280_pressure;Samples;Min_cycle;Max_cycle;Signal;HPM_P1;HPM_P2
2022/02/18 00:00:56;;;;;;;14.93;10.15;;;;;;;7.41;96.75;94072.38;5046423;28;20032;-74
2022/02/18 00:03:24;;;;;;;14.30;10.50;;;;;;;7.33;97.67;94092.22;5046743;28;20082;-73
2022/02/18 00:05:50;;;;;;;22.42;11.40;;;;;;;7.34;98.51;94097.22;5045290;28;20029;-73
2022/02/18 00:08:15;;;;;;;13.93;10.13;;;;;;;7.32;98.66;94091.41;5046891;28;20399;-73
2022/02/18 00:10:41;;;;;;;14.82;10.60;;;;;;;7.30;98.64;94098.53;5045976;28;20028;-74
2022/02/18 00:13:07;;;;;;;11.63;8.10;;;;;;;7.30;99.37;94098.53;5046656;28;20462;-73
2022/02/18 00:15:33;;;;;;;12.30;8.98;;;;;;;7.22;99.85;94087.50;5046670;28;20029;-73
2022/02/18 00:18:01;;;;;;;11.52;8.77;;;;;;;7.33;99.70;94105.91;5047473;28;20028;-73
2022/02/18 00:20:27;;;;;;;11.82;8.60;;;;;;;7.36;99.89;94121.00;5046552;28;20025;-73
2022/02/18 00:22:52;;;;;;;11.05;9.15;;;;;;;7.31;100.00;94114.78;5028287;28;20027;-74
2022/02/18 00:25:18;;;;;;;12.80;10.07;;;;;;;7.28;100.00;94118.50;5046949;28;20071;-73
2022/02/18 00:27:43;;;;;;;12.30;9.00;;;;;;;7.37;100.00;94112.31;5045512;28;20040;-73
2022/02/18 00:30:09;;;;;;;15.13;9.52;;;;;;;7.34;100.00;94104.13;5063168;28;20043;-74
2022/02/18 00:32:35;;;;;;;15.68;10.10;;;;;;;7.39;100.00;94114.72;5045588;28;20037;-75
2022/02/18 00:35:02;;;;;;;14.35;9.98;;;;;;;7.33;100.00;94105.91;5046401;28;20029;-73
2022/02/18 00:37:27;;;;;;;18.35;11.15;;;;;;;7.27;100.00;94108.38;5045190;28;20041;-74
2022/02/18 00:39:55;;;;;;;19.10;10.20;;;;;;;7.29;100.00;94096.13;5045179;28;20474;-73
2022/02/18 00:42:20;;;;;;;16.73;9.73;;;;;;;7.33;100.00;94097.38;5046199;28;20482;-74
2022/02/18 00:44:46;;;;;;;18.42;10.07;;;;;;;7.37;99.78;94108.94;5060842;28;20036;-73
2022/02/18 00:47:12;;;;;;;12.48;10.10;;;;;;;7.28;100.00;94112.56;5063229;28;20120;-73
2022/02/18 00:49:37;;;;;;;12.48;8.98;;;;;;;7.33;100.00;94105.09;5043957;28;20040;-73
2022/02/18 00:52:03;;;;;;;15.20;9.05;;;;;;;7.32;100.00;94098.38;5045777;28;20032;-73
2022/02/18 00:54:29;;;;;;;16.55;8.82;;;;;;;7.25;100.00;94092.31;5044698;28;20029;-73
2022/02/18 00:56:54;;;;;;;17.70;9.40;;;;;;;7.24;100.00;94111.28;5045498;28;20117;-73
2022/02/18 00:59:20;;;;;;;13.68;9.10;;;;;;;7.25;100.00;94107.75;5045571;28;20025;-74
2022/02/18 01:01:46;;;;;;;11.63;8.77;;;;;;;7.19;100.00;94124.66;5045675;28;20131;-73
2022/02/18 01:04:11;;;;;;;10.73;8.40;;;;;;;7.15;100.00;94135.50;5062086;28;20557;-73
2022/02/18 01:06:36;;;;;;;13.50;8.32;;;;;;;7.13;100.00;94140.78;5043561;28;20060;-73
2022/02/18 01:09:02;;;;;;;12.05;8.82;;;;;;;7.13;100.00;94139.97;5047091;28;20025;-74
2022/02/18 01:11:28;;;;;;;14.70;10.57;;;;;;;7.08;100.00;94139.72;5044397;28;20021;-73
2022/02/18 01:13:53;;;;;;;16.17;11.25;;;;;;;7.09;100.00;94149.84;5061391;28;20045;-73
2022/02/18 01:16:19;;;;;;;23.73;13.32;;;;;;;7.06;100.00;94154.53;5044416;28;20039;-74
2022/02/18 01:18:44;;;;;;;19.70;12.05;;;;;;;7.07;100.00;94146.63;5044506;28;20027;-73
2022/02/18 01:21:10;;;;;;;17.33;11.65;;;;;;;7.10;100.00;94143.72;5062132;28;20434;-74
2022/02/18 01:23:35;;;;;;;20.92;11.70;;;;;;;7.09;100.00;94144.69;5045327;28;20019;-73
2022/02/18 01:26:02;;;;;;;15.93;10.80;;;;;;;7.07;100.00;94145.81;5045281;28;20056;-74
2022/02/18 01:28:28;;;;;;;16.23;11.43;;;;;;;6.98;100.00;94162.28;5043452;28;20104;-74
2022/02/18 01:30:54;;;;;;;16.33;11.88;;;;;;;6.81;100.00;94177.78;5045507;28;20051;-73
2022/02/18 01:33:19;;;;;;;11.95;9.95;;;;;;;6.56;100.00;94178.84;5043773;28;20407;-72
2022/02/18 01:35:45;;;;;;;16.48;10.13;;;;;;;6.48;100.00;94178.88;5045484;28;20032;-74
2022/02/18 01:38:10;;;;;;;15.30;11.30;;;;;;;6.49;100.00;94174.53;5044792;28;20494;-73
2022/02/18 01:40:36;;;;;;;15.68;10.38;;;;;;;6.61;100.00;94170.66;5043876;28;20144;-73
2022/02/18 01:43:01;;;;;;;14.93;10.85;;;;;;;6.76;100.00;94177.50;5045268;28;20021;-74
2022/02/18 01:45:27;;;;;;;17.55;10.35;;;;;;;6.68;100.00;94158.69;5042889;28;20631;-73
2022/02/18 01:47:53;;;;;;;13.77;10.20;;;;;;;6.72;100.00;94170.28;5044873;28;20032;-73
2022/02/18 01:50:18;;;;;;;16.00;10.10;;;;;;;6.86;100.00;94182.44;5043570;28;20111;-74
2022/02/18 01:52:47;;;;;;;14.25;9.43;;;;;;;6.80;100.00;94191.66;5044740;28;20021;-74
2022/02/18 01:55:13;;;;;;;13.18;10.35;;;;;;;6.74;100.00;94179.41;5043887;28;20024;-73
2022/02/18 01:57:44;;;;;;;19.88;10.15;;;;;;;6.81;100.00;94174.41;5045042;28;20025;-74
2022/02/18 02:00:11;;;;;;;14.55;10.20;;;;;;;6.93;100.00;94200.59;5044949;28;20029;-74
2022/02/18 02:02:36;;;;;;;12.98;9.25;;;;;;;6.89;100.00;94200.94;5043069;28;20480;-73
2022/02/18 02:05:05;;;;;;;16.40;10.13;;;;;;;6.82;100.00;94215.44;5044831;28;20029;-74
2022/02/18 02:07:31;;;;;;;10.57;9.32;;;;;;;6.82;100.00;94224.91;5042674;28;20037;-73
2022/02/18 02:09:57;;;;;;;11.52;8.80;;;;;;;6.74;100.00;94217.25;5045873;28;20413;-73
2022/02/18 02:12:22;;;;;;;14.00;9.90;;;;;;;6.72;100.00;94219.97;5043317;28;20017;-73
2022/02/18 02:14:48;;;;;;;11.18;8.48;;;;;;;6.64;100.00;94224.34;5044097;28;20479;-74
2022/02/18 02:17:14;;;;;;;15.73;9.15;;;;;;;6.71;100.00;94228.63;5043692;28;20407;-74
2022/02/18 02:19:39;;;;;;;14.00;9.98;;;;;;;6.64;100.00;94238.00;5044337;28;20385;-74
2022/02/18 02:22:05;;;;;;;11.15;8.50;;;;;;;6.69;100.00;94246.03;5044546;28;20453;-74
2022/02/18 02:24:30;;;;;;;12.02;8.27;;;;;;;6.69;100.00;94237.50;5042476;28;20112;-73
2022/02/18 02:26:56;;;;;;;10.98;7.53;;;;;;;6.76;100.00;94241.03;5045656;28;20419;-73
2022/02/18 02:29:21;;;;;;;12.98;8.55;;;;;;;6.70;100.00;94233.97;5043886;28;20027;-73
2022/02/18 02:31:47;;;;;;;11.20;8.05;;;;;;;6.76;100.00;94234.09;5044047;28;20021;-74
2022/02/18 02:34:12;;;;;;;10.23;7.57;;;;;;;6.77;100.00;94238.28;5044282;28;20132;-73
2022/02/18 02:36:38;;;;;;;8.40;6.07;;;;;;;7.02;100.00;94251.06;5043110;28;20028;-72
2022/02/18 02:39:04;;;;;;;6.75;4.95;;;;;;;7.19;100.00;94258.53;5045269;28;20025;-73
2022/02/18 02:41:29;;;;;;;5.97;4.38;;;;;;;7.11;100.00;94250.88;5059425;28;20118;-73
2022/02/18 02:43:55;;;;;;;5.57;4.15;;;;;;;7.19;100.00;94255.19;5044286;28;20028;-74
2022/02/18 02:46:20;;;;;;;4.15;3.60;;;;;;;7.22;100.00;94265.16;5042185;28;20528;-73
2022/02/18 02:48:45;;;;;;;4.15;3.38;;;;;;;7.23;100.00;94269.31;5060311;28;20505;-73
2022/02/18 02:51:11;;;;;;;4.22;3.00;;;;;;;7.34;99.52;94276.69;5025796;28;20025;-73
2022/02/18 02:53:39;;;;;;;3.95;2.75;;;;;;;7.22;100.00;94288.34;5044692;28;20025;-73
2022/02/18 02:56:05;;;;;;;5.07;2.22;;;;;;;7.20;100.00;94297.97;5043488;28;20091;-73
2022/02/18 02:58:31;;;;;;;1.70;1.50;;;;;;;7.30;99.10;94309.69;5043697;28;20024;-72
2022/02/18 03:00:56;;;;;;;3.00;1.33;;;;;;;7.38;97.60;94322.53;5044242;28;20025;-73
2022/02/18 03:03:22;;;;;;;1.98;1.52;;;;;;;7.19;99.59;94340.16;5040487;28;20033;-72
2022/02/18 03:05:48;;;;;;;1.95;1.00;;;;;;;6.95;100.00;94359.03;5043219;28;20025;-72
2022/02/18 03:08:13;;;;;;;2.05;0.90;;;;;;;7.04;100.00;94362.38;5041561;28;20035;-72
2022/02/18 03:10:38;;;;;;;1.85;1.00;;;;;;;6.91;100.00;94375.75;5043335;28;20032;-73
2022/02/18 03:13:04;;;;;;;9.05;0.88;;;;;;;6.89;100.00;94385.41;5043845;28;20041;-72
2022/02/18 03:15:29;;;;;;;1.77;0.70;;;;;;;6.83;100.00;94392.03;5044150;28;20439;-72
2022/02/18 03:17:55;;;;;;;1.48;0.43;;;;;;;6.66;100.00;94398.13;5043080;28;20483;-73
2022/02/18 03:20:21;;;;;;;2.55;0.40;;;;;;;6.46;100.00;94421.72;5057161;28;20024;-73
2022/02/18 03:22:47;;;;;;;6.10;1.08;;;;;;;6.25;100.00;94446.16;5063669;28;20913;-73
2022/02/18 03:25:13;;;;;;;3.33;0.70;;;;;;;6.12;100.00;94457.84;5061516;28;20078;-73
2022/02/18 03:27:40;;;;;;;1.55;0.80;;;;;;;6.23;100.00;94454.94;5064154;28;20048;-74
2022/02/18 03:30:07;;;;;;;0.52;0.50;;;;;;;6.21;100.00;94462.03;5058083;28;20214;-73
2022/02/18 03:32:33;;;;;;;0.57;0.40;;;;;;;6.14;100.00;94458.47;5042639;28;20151;-73
2022/02/18 03:34:59;;;;;;;0.73;0.52;;;;;;;6.18;100.00;94460.59;5043142;28;20502;-73
2022/02/18 03:37:24;;;;;;;0.98;0.40;;;;;;;6.13;100.00;94469.72;5041447;28;20059;-73
2022/02/18 03:39:50;;;;;;;1.10;0.57;;;;;;;6.17;100.00;94484.66;5044610;28;20039;-73
2022/02/18 03:42:15;;;;;;;1.48;0.40;;;;;;;6.07;100.00;94496.06;5061223;28;20025;-73
2022/02/18 03:44:41;;;;;;;1.60;0.38;;;;;;;6.05;100.00;94488.50;5063292;28;20028;-73
2022/02/18 03:47:06;;;;;;;0.50;0.20;;;;;;;6.09;100.00;94492.38;5061661;28;20078;-73
2022/02/18 03:49:32;;;;;;;1.70;0.60;;;;;;;6.20;100.00;94504.91;5062517;28;20028;-73
2022/02/18 03:51:57;;;;;;;1.55;0.50;;;;;;;6.14;100.00;94502.16;5062320;28;20411;-73
2022/02/18 03:54:25;;;;;;;1.95;0.50;;;;;;;5.97;100.00;94488.47;5061984;28;20039;-73
2022/02/18 03:56:51;;;;;;;0.88;0.50;;;;;;;6.00;100.00;94506.16;5064659;28;20032;-73
2022/02/18 03:59:16;;;;;;;1.70;0.43;;;;;;;6.06;100.00;94500.38;5061308;28;20387;-73
2022/02/18 04:01:42;;;;;;;0.75;0.40;;;;;;;6.03;100.00;94487.84;5043094;28;20040;-73
2022/02/18 04:04:07;;;;;;;1.45;0.70;;;;;;;6.02;100.00;94477.72;5041111;28;20029;-73
2022/02/18 04:06:33;;;;;;;1.30;1.20;;;;;;;6.02;100.00;94483.66;5043926;28;20036;-73
2022/02/18 04:08:59;;;;;;;2.10;1.30;;;;;;;6.00;100.00;94484.78;5042900;28;20025;-73
2022/02/18 04:11:24;;;;;;;2.13;0.50;;;;;;;5.99;100.00;94488.28;5042474;28;20037;-73
2022/02/18 04:13:50;;;;;;;1.50;0.73;;;;;;;6.02;100.00;94495.69;5043522;28;20438;-73
2022/02/18 04:16:15;;;;;;;1.08;0.60;;;;;;;5.98;100.00;94502.09;5041258;28;20418;-73
2022/02/18 04:18:40;;;;;;;2.17;0.70;;;;;;;5.92;100.00;94508.66;5044409;28;20025;-73
2022/02/18 04:21:06;;;;;;;1.35;0.98;;;;;;;6.03;100.00;94503.28;5042568;28;20423;-73
2022/02/18 04:23:31;;;;;;;1.10;0.65;;;;;;;6.00;100.00;94498.44;5044343;28;20025;-73
2022/02/18 04:25:57;;;;;;;1.05;0.60;;;;;;;5.95;100.00;94523.78;5042836;28;20029;-73
2022/02/18 04:28:22;;;;;;;1.83;0.95;;;;;;;5.95;100.00;94531.47;5043731;28;20495;-73
2022/02/18 04:30:48;;;;;;;1.75;1.10;;;;;;;5.88;100.00;94532.25;5041708;28;20025;-73
2022/02/18 04:33:15;;;;;;;2.22;1.63;;;;;;;5.89;100.00;94526.97;5041846;28;20108;-72
2022/02/18 04:35:42;;;;;;;2.78;2.03;;;;;;;5.84;100.00;94518.88;5042399;28;20033;-73
2022/02/18 04:38:07;;;;;;;5.65;3.75;;;;;;;5.82;100.00;94508.75;5042434;28;20029;-73
2022/02/18 04:40:33;;;;;;;4.45;3.67;;;;;;;5.77;100.00;94487.88;5052097;28;20032;-72
2022/02/18 04:42:58;;;;;;;3.70;2.78;;;;;;;5.77;100.00;94489.63;5047350;28;20032;-73
2022/02/18 04:45:24;;;;;;;7.80;2.80;;;;;;;5.82;100.00;94498.47;5067741;28;20032;-73
2022/02/18 04:47:49;;;;;;;3.17;2.65;;;;;;;5.81;100.00;94506.34;5064383;28;20469;-72
2022/02/18 04:50:14;;;;;;;5.50;3.30;;;;;;;5.81;100.00;94507.13;5065842;28;20117;-72
2022/02/18 04:52:40;;;;;;;3.53;3.22;;;;;;;5.79;100.00;94524.47;5065013;28;20028;-73
2022/02/18 04:55:06;;;;;;;3.35;2.83;;;;;;;5.77;100.00;94516.13;5065074;28;20040;-73
2022/02/18 04:57:32;;;;;;;2.58;1.98;;;;;;;5.75;100.00;94518.00;5067874;28;20025;-73
2022/02/18 04:59:57;;;;;;;3.15;1.80;;;;;;;5.67;100.00;94525.69;5047822;28;20437;-73
2022/02/18 05:02:23;;;;;;;2.70;1.92;;;;;;;5.68;100.00;94539.34;5049183;28;20086;-73
2022/02/18 05:04:48;;;;;;;4.72;1.80;;;;;;;5.61;100.00;94526.31;5047298;28;20028;-73
2022/02/18 05:07:14;;;;;;;2.33;1.20;;;;;;;5.50;100.00;94529.09;5065761;28;20025;-72
2022/02/18 05:09:39;;;;;;;2.20;1.30;;;;;;;5.44;100.00;94539.97;5064285;28;20052;-73
2022/02/18 05:12:05;;;;;;;2.50;1.08;;;;;;;5.27;100.00;94548.50;5064907;28;20037;-72
2022/02/18 05:14:30;;;;;;;3.22;1.13;;;;;;;5.29;100.00;94559.44;5065416;28;20044;-73
2022/02/18 05:16:56;;;;;;;2.08;1.08;;;;;;;5.31;100.00;94557.53;5063842;28;20032;-73
2022/02/18 05:19:21;;;;;;;0.98;0.73;;;;;;;5.32;100.00;94561.72;5065955;28;20500;-73
2022/02/18 05:21:47;;;;;;;5.10;1.20;;;;;;;5.23;100.00;94573.66;5063666;28;20027;-72
2022/02/18 05:24:12;;;;;;;1.88;0.70;;;;;;;5.18;100.00;94580.19;5065126;28;20031;-72
2022/02/18 05:26:38;;;;;;;1.67;1.33;;;;;;;5.20;100.00;94580.88;5080541;28;20032;-72
2022/02/18 05:29:06;;;;;;;1.52;1.30;;;;;;;5.22;100.00;94599.50;5065512;28;20020;-72
2022/02/18 05:31:31;;;;;;;1.45;1.00;;;;;;;5.21;100.00;94615.84;5064912;28;20115;-72
2022/02/18 05:33:57;;;;;;;1.60;1.10;;;;;;;5.11;100.00;94625.34;5063471;28;20123;-72
2022/02/18 05:36:22;;;;;;;1.67;1.20;;;;;;;5.12;100.00;94621.84;5066976;28;20039;-72
2022/02/18 05:38:48;;;;;;;2.70;1.38;;;;;;;5.14;100.00;94631.00;5063263;28;20474;-73
2022/02/18 05:41:14;;;;;;;1.92;1.25;;;;;;;5.07;100.00;94631.75;5065205;28;20115;-73
2022/02/18 05:43:39;;;;;;;2.05;1.35;;;;;;;5.17;100.00;94624.81;5063850;28;20561;-73
2022/02/18 05:46:05;;;;;;;2.65;1.48;;;;;;;5.08;100.00;94639.28;5064826;28;20107;-72
2022/02/18 05:48:31;;;;;;;4.53;1.63;;;;;;;5.09;100.00;94642.66;5063739;28;20078;-73
2022/02/18 05:50:57;;;;;;;1.92;1.15;;;;;;;5.17;100.00;94640.19;5065164;28;20033;-72
2022/02/18 05:53:23;;;;;;;1.58;1.10;;;;;;;5.19;100.00;94638.28;5064367;28;20074;-72
2022/02/18 05:55:48;;;;;;;1.67;1.30;;;;;;;5.16;100.00;94626.56;5063205;28;20028;-72
2022/02/18 05:58:14;;;;;;;1.92;1.25;;;;;;;5.15;100.00;94637.75;5065054;28;20028;-72
2022/02/18 06:00:39;;;;;;;1.73;1.45;;;;;;;5.12;100.00;94647.50;5062858;28;20085;-73
2022/02/18 06:03:05;;;;;;;3.00;1.15;;;;;;;5.16;100.00;94656.53;5064504;28;20111;-72
2022/02/18 06:05:30;;;;;;;3.13;1.13;;;;;;;5.21;100.00;94651.75;5062742;28;20037;-73
2022/02/18 06:07:55;;;;;;;1.38;1.25;;;;;;;5.14;100.00;94656.66;5064372;28;20040;-73
2022/02/18 06:10:22;;;;;;;0.80;0.80;;;;;;;5.14;100.00;94666.13;5080282;28;20036;-73
2022/02/18 06:12:48;;;;;;;1.40;0.88;;;;;;;5.19;100.00;94666.50;5064483;28;20056;-73
2022/02/18 06:15:14;;;;;;;2.30;1.02;;;;;;;5.21;100.00;94677.44;5047982;28;20033;-72
2022/02/18 06:17:39;;;;;;;1.40;0.80;;;;;;;5.19;100.00;94681.91;5079406;28;20537;-71
2022/02/18 06:20:07;;;;;;;3.05;1.00;;;;;;;5.19;99.61;94697.31;5064696;28;20470;-72
2022/02/18 06:22:32;;;;;;;1.38;0.98;;;;;;;5.19;98.74;94690.44;5062513;28;20025;-73
2022/02/18 06:24:57;;;;;;;2.45;1.27;;;;;;;5.15;98.00;94678.81;5065110;28;20036;-73
2022/02/18 06:27:23;;;;;;;1.75;0.70;;;;;;;5.22;97.04;94692.69;5079805;28;20024;-73
2022/02/18 06:29:49;;;;;;;4.45;1.40;;;;;;;5.28;96.34;94694.69;5063871;28;20028;-72
2022/02/18 06:32:15;;;;;;;1.63;1.23;;;;;;;5.26;96.39;94693.22;5063712;28;20031;-72
2022/02/18 06:34:40;;;;;;;1.40;1.00;;;;;;;5.30;93.69;94687.63;5058652;28;20457;-72
2022/02/18 06:37:06;;;;;;;1.65;0.95;;;;;;;5.36;93.88;94691.41;5063519;28;20031;-73
2022/02/18 06:39:35;;;;;;;1.40;0.90;;;;;;;5.36;94.09;94688.84;5061263;28;20519;-72
2022/02/18 06:42:01;;;;;;;1.02;0.50;;;;;;;5.43;92.96;94683.91;5064972;28;20016;-72
2022/02/18 06:44:27;;;;;;;2.00;0.70;;;;;;;5.52;92.14;94694.09;5061589;28;20043;-72
2022/02/18 06:46:52;;;;;;;2.83;1.05;;;;;;;5.61;93.03;94687.28;5063769;28;20028;-73
2022/02/18 06:49:18;;;;;;;2.00;0.90;;;;;;;5.58;91.34;94685.84;5062965;28;20060;-73
2022/02/18 06:51:43;;;;;;;5.72;1.30;;;;;;;5.83;90.56;94687.66;5062976;28;20493;-73
2022/02/18 06:54:08;;;;;;;1.27;0.77;;;;;;;6.21;87.90;94688.25;5064655;28;20107;-73
2022/02/18 06:56:34;;;;;;;2.55;1.25;;;;;;;6.34;86.38;94691.25;5062150;28;20037;-73
2022/02/18 06:59:01;;;;;;;5.00;0.70;;;;;;;8.75;75.12;94694.41;5063852;28;20074;-74
2022/02/18 07:01:27;;;;;;;2.15;1.02;;;;;;;9.45;67.25;94701.22;5061883;28;20090;-73
2022/02/18 07:24:11;;;;;;;3.83;1.27;;;;;;;6.84;75.42;94717.06;5056125;28;20059;-74
2022/02/18 07:26:37;;;;;;;6.45;1.08;;;;;;;7.84;73.87;94706.72;5063115;28;20055;-73
2022/02/18 07:29:03;;;;;;;1.42;0.80;;;;;;;7.09;74.82;94715.41;5063704;28;20044;-73
2022/02/18 07:31:29;;;;;;;1.50;0.70;;;;;;;8.32;70.05;94709.31;5061396;28;20028;-74
2022/02/18 07:33:54;;;;;;;1.55;0.80;;;;;;;13.89;48.90;94696.88;5063567;28;20379;-73
2022/02/18 07:36:20;;;;;;;1.30;0.77;;;;;;;14.22;46.89;94689.91;5061477;28;20029;-74
2022/02/18 07:38:45;;;;;;;2.30;1.08;;;;;;;13.08;48.78;94682.13;5062889;28;20560;-73
2022/02/18 07:41:11;;;;;;;1.35;0.80;;;;;;;14.31;46.67;94668.88;5062335;28;20526;-74
2022/02/18 07:43:36;;;;;;;1.92;1.15;;;;;;;14.60;44.82;94660.69;5061993;28;20405;-74
2022/02/18 07:46:02;;;;;;;2.50;1.05;;;;;;;15.69;42.72;94682.44;5046579;28;20024;-75
2022/02/18 07:48:28;;;;;;;2.15;0.90;;;;;;;14.29;46.10;94691.72;5061199;28;20078;-75
2022/02/18 07:50:53;;;;;;;3.45;1.92;;;;;;;14.07;46.83;94689.28;5046987;28;20032;-75
2022/02/18 07:53:19;;;;;;;1.88;1.13;;;;;;;14.87;44.83;94683.06;5059017;28;20028;-74
2022/02/18 07:55:44;;;;;;;3.72;1.30;;;;;;;15.27;42.82;94684.59;5047883;28;20039;-75
2022/02/18 07:58:11;;;;;;;2.20;1.30;;;;;;;16.06;41.52;94683.44;5041656;28;20548;-76
2022/02/18 08:00:38;;;;;;;4.40;1.63;;;;;;;14.72;44.50;94685.13;5059303;28;20033;-76
2022/02/18 08:03:03;;;;;;;5.13;1.20;;;;;;;15.24;43.80;94681.59;5059565;28;20036;-75
2022/02/18 08:05:29;;;;;;;2.90;1.13;;;;;;;13.02;51.01;94690.69;5041244;28;20033;-76
2022/02/18 08:07:57;;;;;;;3.63;1.15;;;;;;;11.48;53.54;94705.34;5044704;28;20420;-76
2022/02/18 08:10:23;;;;;;;1.95;1.38;;;;;;;11.44;53.37;94701.50;5041137;28;20052;-75
2022/02/18 08:12:48;;;;;;;2.90;1.10;;;;;;;11.09;55.19;94698.69;5059638;28;20108;-75
2022/02/18 08:15:14;;;;;;;1.42;1.15;;;;;;;11.38;55.64;94697.03;5043229;28;20048;-75
2022/02/18 08:17:39;;;;;;;2.85;0.95;;;;;;;11.61;55.60;94700.31;5055010;28;20107;-75
2022/02/18 08:20:07;;;;;;;2.05;1.10;;;;;;;11.87;53.99;94697.22;5055421;28;20025;-73
2022/02/18 08:22:32;;;;;;;2.20;1.40;;;;;;;11.68;54.67;94685.63;5055275;28;20020;-73
2022/02/18 08:24:58;;;;;;;3.55;1.42;;;;;;;12.41;51.89;94685.31;5058083;28;20499;-73
2022/02/18 08:27:23;;;;;;;3.97;1.40;;;;;;;11.41;54.28;94675.94;5071639;28;20024;-73
2022/02/18 08:29:49;;;;;;;4.85;1.17;;;;;;;12.03;52.00;94677.03;5045809;28;20023;-73
2022/02/18 08:32:14;;;;;;;4.60;1.40;;;;;;;11.59;51.54;94669.34;5060085;28;20598;-73
2022/02/18 08:34:39;;;;;;;3.58;1.58;;;;;;;12.12;51.33;94669.91;5037596;28;20056;-72
2022/02/18 08:37:05;;;;;;;5.70;1.30;;;;;;;12.28;52.38;94668.81;5050506;28;20473;-73
2022/02/18 08:39:30;;;;;;;4.05;1.63;;;;;;;12.54;50.94;94679.41;5057493;28;20021;-73
2022/02/18 08:41:56;;;;;;;2.35;1.20;;;;;;;14.09;46.90;94684.69;5065467;28;20029;-73
2022/02/18 08:44:22;;;;;;;4.53;1.60;;;;;;;14.79;45.74;94693.75;5063426;28;20033;-73
2022/02/18 08:46:47;;;;;;;3.92;1.25;;;;;;;15.38;43.79;94687.56;5060817;28;20119;-74
2022/02/18 08:49:13;;;;;;;4.57;1.00;;;;;;;16.66;41.00;94693.25;5062251;28;20031;-74
2022/02/18 08:51:39;;;;;;;4.38;1.20;;;;;;;18.00;38.13;94698.47;5061440;28;20021;-72
2022/02/18 08:54:05;;;;;;;3.72;1.20;;;;;;;18.33;39.09;94709.28;5048740;28;20035;-72
2022/02/18 08:56:30;;;;;;;3.50;2.15;;;;;;;16.52;38.92;94709.25;5057158;28;20025;-73
2022/02/18 08:58:56;;;;;;;3.83;1.45;;;;;;;18.79;35.87;94698.09;5067125;28;20570;-73
2022/02/18 09:01:24;;;;;;;2.50;1.08;;;;;;;18.13;36.86;94707.97;5060784;28;20494;-72
2022/02/18 09:10:15;;;;;;;4.03;1.40;;;;;;;18.48;36.17;94702.81;5053998;28;20493;-73
2022/02/18 09:12:41;;;;;;;3.47;1.60;;;;;;;19.36;34.53;94706.97;5067131;28;20027;-77
2022/02/18 09:15:08;;;;;;;4.22;1.38;;;;;;;18.81;35.41;94713.63;5038712;28;20059;-76
2022/02/18 09:17:33;;;;;;;2.70;1.08;;;;;;;19.14;35.40;94707.78;5049498;28;20681;-78
2022/02/18 09:19:59;;;;;;;2.75;1.42;;;;;;;19.49;33.14;94711.19;5063993;28;20028;-78
2022/02/18 09:22:25;;;;;;;2.10;1.08;;;;;;;18.83;34.50;94715.00;5062090;28;20422;-77
2022/02/18 09:24:52;;;;;;;1.60;1.17;;;;;;;18.65;34.32;94698.56;5033895;28;20048;-78
2022/02/18 09:27:18;;;;;;;3.55;1.27;;;;;;;19.46;35.40;94693.28;5055540;28;20186;-76
2022/02/18 09:29:43;;;;;;;4.28;1.60;;;;;;;18.21;35.39;94708.44;5051380;28;20151;-77
2022/02/18 09:32:09;;;;;;;2.60;1.27;;;;;;;18.77;35.07;94701.97;5056839;28;20020;-78
2022/02/18 09:34:34;;;;;;;5.35;1.48;;;;;;;19.63;34.16;94698.63;5064293;28;20111;-78
2022/02/18 09:37:00;;;;;;;3.72;1.30;;;;;;;18.43;34.92;94699.03;5045841;28;20039;-78
2022/02/18 09:39:25;;;;;;;3.97;1.25;;;;;;;19.78;33.23;94683.13;5048536;28;20054;-78
2022/02/18 09:41:51;;;;;;;1.67;1.10;;;;;;;18.66;34.41;94700.13;5063534;28;20158;-78
2022/02/18 09:44:19;;;;;;;3.88;1.40;;;;;;;18.06;36.32;94697.56;5064470;28;20076;-77
2022/02/18 09:46:46;;;;;;;2.65;1.30;;;;;;;20.60;32.23;94692.28;5065014;28;20028;-77
2022/02/18 09:49:12;;;;;;;4.82;1.40;;;;;;;16.42;36.81;94690.63;5047017;28;20368;-76
2022/02/18 09:51:38;;;;;;;2.83;1.27;;;;;;;18.16;33.41;94694.41;5065368;28;20028;-79
2022/02/18 09:54:04;;;;;;;5.90;1.38;;;;;;;18.21;34.03;94700.59;5044767;28;20064;-75
2022/02/18 09:56:32;;;;;;;2.17;1.20;;;;;;;19.37;31.83;94692.81;5042387;28;20467;-78
2022/02/18 09:59:05;;;;;;;1.97;1.20;;;;;;;19.29;33.53;94700.25;5050572;28;20033;-77
2022/02/18 10:01:31;;;;;;;3.30;1.05;;;;;;;19.40;33.16;94697.63;5053985;28;20358;-77
2022/02/18 10:03:59;;;;;;;6.85;1.88;;;;;;;17.74;34.65;94701.44;5061797;28;20025;-76
2022/02/18 10:06:28;;;;;;;5.13;1.48;;;;;;;18.03;35.58;94699.84;5060850;28;20032;-78
2022/02/18 10:08:53;;;;;;;3.63;1.25;;;;;;;19.10;32.75;94686.47;5068435;28;20033;-77
2022/02/18 10:11:19;;;;;;;3.80;1.60;;;;;;;17.93;34.94;94682.03;5058083;28;20166;-78
2022/02/18 10:13:46;;;;;;;2.80;1.50;;;;;;;17.01;35.15;94679.69;5048399;28;20025;-77
2022/02/18 10:16:15;;;;;;;5.07;1.50;;;;;;;17.88;34.41;94666.19;5042492;28;20490;-77
2022/02/18 10:19:01;;;;;;;4.55;1.10;;;;;;;17.96;34.87;94670.28;5043799;28;20410;-76
2022/02/18 10:21:30;;;;;;;5.60;1.40;;;;;;;17.30;33.90;94639.69;5044093;28;20078;-79
2022/02/18 10:24:07;;;;;;;2.63;1.65;;;;;;;17.75;34.39;94653.25;5045523;28;20052;-77
2022/02/18 10:26:46;;;;;;;2.88;1.30;;;;;;;16.58;35.14;94648.28;5058453;28;20059;-75
2022/02/18 10:29:24;;;;;;;2.60;1.30;;;;;;;16.40;34.55;94640.38;5062441;28;20032;-78
2022/02/18 10:32:12;;;;;;;2.25;1.23;;;;;;;16.42;36.15;94649.59;5064540;28;20042;-76
2022/02/18 10:34:55;;;;;;;4.30;1.48;;;;;;;13.00;43.27;94661.50;5062503;28;20032;-78
2022/02/18 10:37:22;;;;;;;5.07;1.20;;;;;;;12.12;43.87;94660.31;5063238;28;20032;-77
2022/02/18 10:39:48;;;;;;;5.55;1.15;;;;;;;11.99;43.61;94649.81;5048016;28;20068;-75
2022/02/18 10:42:15;;;;;;;2.88;1.27;;;;;;;12.15;44.42;94662.53;5062526;28;20028;-77
2022/02/18 10:44:40;;;;;;;1.90;1.05;;;;;;;12.35;43.95;94649.72;5046763;28;20031;-76
2022/02/18 10:47:19;;;;;;;1.90;1.00;;;;;;;12.49;43.62;94650.63;5062170;28;20029;-77
2022/02/18 10:49:46;;;;;;;3.05;1.17;;;;;;;12.29;42.91;94640.09;5045622;28;20150;-77
2022/02/18 10:52:16;;;;;;;1.83;1.05;;;;;;;12.27;42.92;94638.63;5064081;28;20020;-77
2022/02/18 10:54:45;;;;;;;2.70;0.90;;;;;;;12.02;42.81;94638.25;5061416;28;20063;-79
2022/02/18 10:57:13;;;;;;;1.58;1.02;;;;;;;12.00;43.13;94635.88;5063876;28;20033;-79
2022/02/18 10:59:39;;;;;;;2.05;0.93;;;;;;;12.54;43.58;94637.84;5065410;28;20025;-77
2022/02/18 11:02:05;;;;;;;3.03;0.80;;;;;;;12.38;42.85;94640.72;5064429;28;20040;-77
2022/02/18 11:04:30;;;;;;;2.55;0.80;;;;;;;12.98;43.21;94645.28;5062919;28;20051;-76
2022/02/18 11:07:13;;;;;;;1.65;0.70;;;;;;;12.52;42.33;94639.84;5063962;28;20031;-76
2022/02/18 11:09:39;;;;;;;1.95;0.60;;;;;;;12.54;41.40;94635.25;5064359;28;20529;-76
2022/02/18 11:12:12;;;;;;;2.13;0.60;;;;;;;12.69;41.74;94633.34;5061520;28;20029;-76
2022/02/18 11:14:47;;;;;;;1.90;1.13;;;;;;;12.60;42.18;94613.69;5063560;28;20437;-76
2022/02/18 11:17:14;;;;;;;3.15;0.77;;;;;;;12.11;43.29;94629.34;5062865;28;20107;-74
2022/02/18 11:19:45;;;;;;;3.38;0.70;;;;;;;12.36;41.46;94627.16;5043829;28;20044;-76
2022/02/18 11:22:11;;;;;;;2.47;1.10;;;;;;;12.79;42.68;94620.81;5062265;28;20148;-75
2022/02/18 11:24:38;;;;;;;3.03;1.10;;;;;;;12.61;42.74;94612.72;5061566;28;20054;-77
2022/02/18 11:27:04;;;;;;;3.50;1.35;;;;;;;12.31;42.37;94619.91;5033321;28;20040;-77
2022/02/18 11:29:35;;;;;;;8.20;1.10;;;;;;;12.24;42.42;94623.44;5061489;28;20524;-77
2022/02/18 11:32:03;;;;;;;2.35;0.90;;;;;;;11.97;42.70;94617.25;5046078;28;20039;-77
2022/02/18 11:34:39;;;;;;;4.90;0.90;;;;;;;11.54;42.84;94622.44;5062236;28;20036;-75
2022/02/18 11:37:42;;;;;;;2.08;0.90;;;;;;;12.23;42.68;94598.50;5059876;28;20035;-75
2022/02/18 11:40:23;;;;;;;7.72;0.80;;;;;;;12.33;42.34;94625.72;5045311;28;20402;-75
2022/02/18 11:43:16;;;;;;;6.07;1.23;;;;;;;12.03;43.19;94625.09;5038103;28;20112;-75
2022/02/18 11:45:41;;;;;;;2.17;0.82;;;;;;;12.52;44.71;94630.22;5044865;28;20090;-76
2022/02/18 11:48:06;;;;;;;2.28;1.17;;;;;;;12.42;42.67;94623.78;5046689;28;20471;-77
2022/02/18 11:50:32;;;;;;;1.17;0.68;;;;;;;11.90;44.38;94613.81;5068537;28;20399;-76
2022/02/18 11:52:58;;;;;;;3.42;0.90;;;;;;;12.41;44.54;94614.38;5067502;28;20029;-76
2022/02/18 11:55:35;;;;;;;2.80;0.93;;;;;;;12.58;42.73;94623.50;5064405;28;20400;-77